Time;durP1;ratioP1;P1;durP2;ratioP2;P2;SDS_P1;SDS_P2;PMS_P1;PMS_P2;Temp;Humidity;BMP_temperature;BMP_pressure;BME280_temperature;BME280_humidity;BME280_pressure;Samples;Min_cycle;Max_cycle;Signal;HPM_P1;HPM_P2
2022/07/27 00:00:30;;;;;;;2.47;2.27;;;22.50;65.60;;;;;;5035476;28;20219;-70
2022/07/27 00:02:56;;;;;;;2.00;1.90;;;22.50;65.30;;;;;;5075644;28;20215;-71
2022/07/27 00:05:22;;;;;;;2.33;2.23;;;22.50;65.10;;;;;;5051982;28;20221;-71
2022/07/27 00:07:48;;;;;;;2.40;2.13;;;22.40;64.90;;;;;;5052927;28;20222;-70
2022/07/27 00:10:15;;;;;;;2.20;2.10;;;22.40;64.80;;;;;;5047843;28;20893;-70
2022/07/27 00:12:41;;;;;;;2.40;2.30;;;22.50;65.00;;;;;;5045304;28;20503;-70
2022/07/27 00:15:08;;;;;;;2.50;2.40;;;22.40;65.40;;;;;;5052075;28;20495;-71
2022/07/27 00:17:34;;;;;;;2.30;2.20;;;22.30;65.40;;;;;;5052491;28;20539;-70
2022/07/27 00:20:00;;;;;;;2.40;2.30;;;22.40;65.50;;;;;;5053243;28;20636;-71
2022/07/27 00:22:25;;;;;;;2.40;2.30;;;22.40;65.20;;;;;;5066404;28;20301;-71
2022/07/27 00:24:51;;;;;;;2.00;1.90;;;22.50;65.00;;;;;;5070506;28;20738;-70
2022/07/27 00:27:17;;;;;;;2.10;1.90;;;22.50;64.80;;;;;;5055639;28;20210;-71
2022/07/27 00:29:44;;;;;;;2.30;2.20;;;22.40;64.90;;;;;;5054398;28;20227;-71
2022/07/27 00:32:11;;;;;;;2.80;2.60;;;22.40;64.60;;;;;;5044063;28;20260;-70
2022/07/27 00:34:36;;;;;;;2.47;2.37;;;22.40;65.00;;;;;;5035456;28;20981;-71
2022/07/27 00:37:03;;;;;;;2.20;2.10;;;22.30;65.20;;;;;;5052974;28;20591;-70
2022/07/27 00:39:29;;;;;;;2.70;2.50;;;22.30;66.50;;;;;;5052092;28;20234;-70
2022/07/27 00:41:55;;;;;;;2.13;2.00;;;22.20;65.40;;;;;;5063575;28;20446;-70
2022/07/27 00:44:31;;;;;;;2.30;2.20;;;22.20;65.70;;;;;;5035294;28;20580;-71
2022/07/27 00:46:57;;;;;;;2.27;2.07;;;22.20;66.10;;;;;;5081718;28;20284;-69
2022/07/27 00:49:27;;;;;;;2.20;2.10;;;22.10;66.00;;;;;;5047363;28;20481;-71
2022/07/27 00:51:53;;;;;;;2.10;2.00;;;22.00;66.00;;;;;;5044601;28;20464;-71
2022/07/27 00:54:21;;;;;;;2.30;2.20;;;22.00;65.80;;;;;;5035934;28;20478;-71
2022/07/27 00:56:47;;;;;;;1.60;1.50;;;21.80;66.40;;;;;;5052253;28;20306;-71
2022/07/27 00:59:13;;;;;;;2.40;2.20;;;21.90;66.20;;;;;;5051378;28;20461;-71
2022/07/27 01:01:40;;;;;;;2.93;2.40;;;21.90;66.60;;;;;;5070120;28;20218;-71
2022/07/27 01:04:07;;;;;;;1.97;1.83;;;21.90;66.90;;;;;;5052114;28;20454;-70
2022/07/27 01:06:33;;;;;;;2.20;2.10;;;21.80;66.80;;;;;;5027829;28;20446;-70
2022/07/27 01:11:47;;;;;;;2.00;1.90;;;21.90;66.90;;;;;;5062397;28;20441;-71
2022/07/27 01:14:15;;;;;;;1.90;1.70;;;21.90;66.70;;;;;;5061745;28;20477;-70
2022/07/27 01:16:41;;;;;;;2.00;1.90;;;21.80;67.70;;;;;;5056862;28;20452;-70
2022/07/27 01:19:12;;;;;;;3.33;2.90;;;21.80;67.40;;;;;;5034199;28;20458;-70
2022/07/27 01:21:38;;;;;;;2.03;1.93;;;21.80;67.50;;;;;;5068089;28;20453;-70
2022/07/27 01:24:04;;;;;;;2.00;1.90;;;21.70;67.90;;;;;;5065110;28;20538;-70
2022/07/27 01:26:32;;;;;;;2.10;1.97;;;21.60;68.50;;;;;;5051826;28;20246;-70
2022/07/27 01:28:59;;;;;;;1.90;1.80;;;21.60;68.20;;;;;;5085655;28;20480;-70
2022/07/27 01:31:25;;;;;;;2.03;1.93;;;21.60;68.80;;;;;;5067346;28;20473;-70
2022/07/27 01:33:51;;;;;;;1.63;1.53;;;21.60;68.60;;;;;;5047089;28;20469;-70
2022/07/27 01:36:17;;;;;;;1.70;1.60;;;21.60;68.40;;;;;;5048182;28;20503;-71
2022/07/27 01:38:43;;;;;;;1.57;1.47;;;21.50;68.80;;;;;;5042484;28;20241;-70
2022/07/27 01:41:09;;;;;;;1.70;1.60;;;21.50;69.50;;;;;;5034849;28;20519;-71
2022/07/27 01:43:35;;;;;;;1.63;1.53;;;21.40;69.30;;;;;;5054191;28;20445;-70
2022/07/27 01:46:01;;;;;;;1.77;1.63;;;21.40;69.70;;;;;;5069605;28;20306;-70
2022/07/27 01:48:27;;;;;;;1.60;1.50;;;21.40;69.40;;;;;;5043978;28;20219;-70
2022/07/27 01:50:53;;;;;;;1.70;1.60;;;21.30;69.70;;;;;;5050986;28;20450;-70
2022/07/27 01:53:19;;;;;;;3.53;1.60;;;21.30;70.20;;;;;;5082782;28;20705;-70
2022/07/27 01:55:46;;;;;;;1.70;1.60;;;21.30;70.30;;;;;;5051583;28;20236;-70
2022/07/27 01:58:12;;;;;;;5.03;1.87;;;21.30;70.40;;;;;;5044871;28;21049;-72
2022/07/27 02:00:38;;;;;;;1.83;1.73;;;21.30;70.70;;;;;;5050439;28;20499;-71
2022/07/27 02:03:06;;;;;;;1.97;1.87;;;21.20;71.10;;;;;;5042492;28;20298;-71
2022/07/27 02:05:32;;;;;;;1.70;1.60;;;21.20;71.30;;;;;;5033319;28;20230;-70
2022/07/27 02:07:58;;;;;;;1.83;1.73;;;21.00;72.00;;;;;;5051850;28;20482;-70
2022/07/27 02:10:24;;;;;;;1.73;1.63;;;21.10;72.00;;;;;;5062876;28;20972;-71
2022/07/27 02:12:50;;;;;;;1.87;1.77;;;21.00;72.30;;;;;;5065525;28;20238;-70
2022/07/27 02:15:19;;;;;;;2.87;1.80;;;21.00;72.30;;;;;;5049109;28;20231;-71
2022/07/27 02:17:45;;;;;;;2.70;1.63;;;21.00;72.80;;;;;;5047406;28;20872;-71
2022/07/27 02:20:14;;;;;;;1.73;1.63;;;20.90;73.30;;;;;;5036293;28;20458;-70
2022/07/27 02:22:41;;;;;;;2.10;1.93;;;20.90;73.00;;;;;;5067228;28;20455;-71
2022/07/27 02:25:08;;;;;;;1.60;1.50;;;20.90;72.90;;;;;;5050543;28;20461;-71
2022/07/27 02:27:33;;;;;;;2.10;1.90;;;20.90;73.70;;;;;;5071271;28;20499;-70
2022/07/27 02:29:59;;;;;;;1.37;1.30;;;20.70;74.40;;;;;;5055530;28;20473;-70
2022/07/27 02:32:25;;;;;;;1.73;1.57;;;20.70;74.80;;;;;;5055350;28;20704;-71
2022/07/27 02:34:51;;;;;;;1.43;1.30;;;20.70;74.40;;;;;;5031636;28;20323;-70
2022/07/27 02:37:17;;;;;;;2.10;1.90;;;20.80;74.80;;;;;;5048508;28;20903;-71
2022/07/27 02:39:42;;;;;;;1.60;1.50;;;20.90;73.40;;;;;;5036662;28;20223;-70
2022/07/27 02:42:09;;;;;;;2.27;2.10;;;20.90;74.70;;;;;;5042062;28;20246;-71
2022/07/27 02:44:34;;;;;;;1.40;1.30;;;20.80;74.10;;;;;;5037779;28;20284;-70
2022/07/27 02:47:00;;;;;;;1.47;1.43;;;20.80;74.20;;;;;;5053822;28;20980;-70
2022/07/27 02:49:26;;;;;;;1.70;1.60;;;20.80;74.10;;;;;;5053643;28;20227;-70
2022/07/27 02:51:53;;;;;;;1.70;1.60;;;20.80;74.20;;;;;;5072456;28;20464;-69
2022/07/27 02:54:23;;;;;;;3.27;1.80;;;20.80;74.70;;;;;;5034678;28;20228;-71
2022/07/27 02:56:53;;;;;;;1.50;1.40;;;20.70;75.00;;;;;;5053993;28;20452;-71
2022/07/27 02:59:20;;;;;;;2.57;1.37;;;20.70;74.90;;;;;;5045597;28;21055;-71
2022/07/27 03:01:46;;;;;;;1.80;1.40;;;20.70;75.40;;;;;;5034029;28;20993;-71
2022/07/27 03:04:12;;;;;;;1.40;1.40;;;20.70;75.20;;;;;;5065971;28;20489;-70
2022/07/27 03:06:37;;;;;;;1.63;1.50;;;20.60;75.90;;;;;;5036410;28;20484;-71
2022/07/27 03:09:04;;;;;;;1.57;1.47;;;20.60;76.30;;;;;;5053314;28;20226;-70
2022/07/27 03:11:30;;;;;;;1.60;1.53;;;20.50;77.40;;;;;;5053420;28;20222;-71
2022/07/27 03:13:55;;;;;;;1.70;1.60;;;20.50;76.60;;;;;;5034021;28;20912;-70
2022/07/27 03:16:21;;;;;;;1.40;1.30;;;20.50;76.80;;;;;;5050080;28;20215;-70
2022/07/27 03:18:47;;;;;;;1.70;1.50;;;20.40;77.90;;;;;;5028493;28;20228;-70
2022/07/27 03:21:12;;;;;;;1.83;1.73;;;20.30;77.60;;;;;;5027029;28;20231;-70
2022/07/27 03:23:38;;;;;;;2.00;1.80;;;20.30;77.80;;;;;;5051827;28;20229;-70
2022/07/27 03:26:04;;;;;;;1.80;1.70;;;20.40;77.90;;;;;;5047959;28;20789;-70
2022/07/27 03:28:30;;;;;;;3.30;1.50;;;20.30;77.70;;;;;;5053914;28;20227;-70
2022/07/27 03:30:56;;;;;;;1.47;1.20;;;20.40;77.70;;;;;;5066776;28;20464;-70
2022/07/27 03:33:22;;;;;;;1.60;1.50;;;20.40;77.80;;;;;;5070892;28;20266;-71
2022/07/27 03:35:47;;;;;;;1.83;1.73;;;20.40;77.50;;;;;;5037099;28;20446;-71
2022/07/27 03:38:13;;;;;;;1.63;1.53;;;20.40;77.90;;;;;;5075512;28;20284;-70
2022/07/27 03:40:39;;;;;;;1.87;1.73;;;20.40;77.80;;;;;;5050781;28;20217;-70
2022/07/27 03:43:05;;;;;;;1.50;1.40;;;20.30;78.10;;;;;;5033639;28;20300;-71
2022/07/27 03:45:31;;;;;;;1.63;1.53;;;20.30;78.30;;;;;;5057153;28;20541;-70
2022/07/27 03:47:56;;;;;;;2.03;1.93;;;20.20;78.90;;;;;;5052258;28;20215;-70
2022/07/27 03:50:22;;;;;;;1.57;1.20;;;20.20;79.30;;;;;;5052604;28;20229;-70
2022/07/27 03:52:49;;;;;;;1.50;1.40;;;20.20;78.70;;;;;;5051690;28;20216;-70
2022/07/27 03:55:14;;;;;;;1.97;1.50;;;20.20;78.90;;;;;;5071069;28;20281;-71
2022/07/27 03:57:40;;;;;;;1.50;1.40;;;20.20;79.00;;;;;;5053140;28;20457;-70
2022/07/27 04:00:10;;;;;;;1.53;1.40;;;20.20;78.90;;;;;;5038497;28;20730;-70
2022/07/27 04:02:35;;;;;;;2.40;2.20;;;20.20;79.40;;;;;;5070676;28;20215;-71
2022/07/27 04:05:01;;;;;;;1.67;1.57;;;20.10;79.40;;;;;;5030768;28;20469;-70
2022/07/27 04:07:27;;;;;;;1.27;1.20;;;20.10;79.70;;;;;;5051703;28;20211;-70
2022/07/27 04:09:52;;;;;;;2.00;1.90;;;20.10;79.80;;;;;;5036504;28;20642;-70
2022/07/27 04:12:18;;;;;;;1.73;1.50;;;20.10;80.10;;;;;;5035457;28;20255;-70
2022/07/27 04:14:43;;;;;;;1.70;1.50;;;20.10;80.10;;;;;;5050912;28;20223;-70
2022/07/27 04:17:09;;;;;;;1.23;1.23;;;20.10;79.90;;;;;;5036790;28;20277;-70
2022/07/27 04:19:35;;;;;;;4.40;2.27;;;20.10;80.50;;;;;;5070468;28;20670;-70
2022/07/27 04:22:00;;;;;;;1.70;1.40;;;20.10;80.60;;;;;;5065956;28;20302;-70
2022/07/27 04:24:26;;;;;;;1.60;1.50;;;20.10;80.50;;;;;;5077657;28;20227;-70
2022/07/27 04:26:52;;;;;;;3.43;1.60;;;20.00;80.70;;;;;;5037090;28;20223;-70
2022/07/27 04:29:17;;;;;;;2.93;1.40;;;20.00;80.90;;;;;;5039089;28;20227;-71
2022/07/27 04:31:43;;;;;;;1.83;1.67;;;20.00;80.50;;;;;;5068607;28;20219;-70
2022/07/27 04:34:09;;;;;;;1.53;1.40;;;20.00;80.70;;;;;;5036300;28;20241;-70
2022/07/27 04:36:37;;;;;;;1.70;1.60;;;20.10;80.40;;;;;;5029835;28;20215;-70
2022/07/27 04:39:03;;;;;;;10.73;1.50;;;20.10;79.90;;;;;;5070034;28;20231;-70
2022/07/27 04:41:29;;;;;;;1.73;1.63;;;20.10;80.70;;;;;;5049477;28;20553;-70
2022/07/27 04:43:55;;;;;;;1.80;1.70;;;20.10;80.40;;;;;;5034952;28;20722;-69
2022/07/27 04:46:21;;;;;;;4.03;1.33;;;20.10;80.40;;;;;;5070275;28;20219;-70
2022/07/27 04:48:46;;;;;;;1.93;1.73;;;20.10;80.90;;;;;;5032167;28;20216;-70
2022/07/27 04:51:14;;;;;;;2.90;1.53;;;20.20;80.10;;;;;;5081731;28;20225;-70
2022/07/27 04:53:40;;;;;;;1.90;1.50;;;20.20;80.00;;;;;;5031683;28;20633;-70
2022/07/27 04:56:07;;;;;;;2.80;1.63;;;20.10;80.80;;;;;;5040826;28;20466;-70
2022/07/27 04:58:33;;;;;;;2.87;1.60;;;20.10;81.00;;;;;;5050623;28;20445;-71
2022/07/27 05:00:58;;;;;;;4.00;1.80;;;20.00;81.40;;;;;;5069499;28;20438;-70
2022/07/27 05:03:24;;;;;;;1.87;1.70;;;20.00;81.60;;;;;;5050461;28;20713;-70
2022/07/27 05:05:50;;;;;;;1.50;1.40;;;20.00;81.90;;;;;;5048390;28;20223;-70
2022/07/27 05:08:16;;;;;;;1.97;1.80;;;20.00;81.80;;;;;;5065896;28;20691;-70
2022/07/27 05:10:41;;;;;;;1.80;1.70;;;20.00;82.00;;;;;;5052242;28;20667;-71
2022/07/27 05:13:07;;;;;;;1.73;1.60;;;19.90;82.80;;;;;;5034680;28;20243;-70
2022/07/27 05:15:33;;;;;;;1.70;1.57;;;19.90;82.70;;;;;;5033557;28;20253;-70
2022/07/27 05:17:58;;;;;;;2.40;2.20;;;19.90;82.50;;;;;;5051888;28;20669;-70
2022/07/27 05:20:24;;;;;;;1.80;1.70;;;19.90;82.40;;;;;;5051136;28;20235;-70
2022/07/27 05:22:50;;;;;;;2.90;1.77;;;19.90;82.80;;;;;;5027870;28;20284;-70
2022/07/27 05:25:16;;;;;;;1.90;1.80;;;19.90;83.20;;;;;;5067037;28;20247;-69
2022/07/27 05:27:41;;;;;;;3.40;2.30;;;19.80;84.00;;;;;;5013615;28;20259;-70
2022/07/27 05:30:08;;;;;;;2.20;1.90;;;19.80;84.00;;;;;;5032978;28;20227;-70
2022/07/27 05:32:34;;;;;;;1.93;1.83;;;19.70;84.70;;;;;;5069058;28;20686;-71
2022/07/27 05:35:00;;;;;;;1.93;1.80;;;19.60;84.60;;;;;;5034450;28;20484;-71
2022/07/27 05:37:25;;;;;;;2.37;2.10;;;19.80;84.40;;;;;;5068038;28;20445;-70
2022/07/27 05:39:51;;;;;;;3.67;2.10;;;19.70;84.50;;;;;;5035171;28;20235;-69
2022/07/27 05:42:17;;;;;;;1.90;1.80;;;19.80;84.30;;;;;;5063673;28;20378;-70
2022/07/27 05:44:42;;;;;;;1.83;1.73;;;19.70;84.90;;;;;;5063073;28;20226;-70
2022/07/27 05:47:08;;;;;;;2.03;1.93;;;19.70;85.10;;;;;;5034979;28;20215;-71
2022/07/27 05:49:34;;;;;;;1.60;1.50;;;19.60;85.00;;;;;;5066188;28;20732;-72
2022/07/27 05:52:00;;;;;;;1.97;1.77;;;19.60;85.10;;;;;;5050959;28;20302;-71
2022/07/27 05:54:25;;;;;;;1.73;1.63;;;19.60;85.00;;;;;;5048277;28;20269;-70
2022/07/27 05:56:51;;;;;;;2.70;2.00;;;19.60;85.00;;;;;;5051317;28;20305;-71
2022/07/27 05:59:17;;;;;;;2.23;2.03;;;19.70;85.10;;;;;;5036651;28;20235;-70
2022/07/27 06:01:43;;;;;;;2.73;1.87;;;19.70;85.20;;;;;;5034373;28;20334;-71
2022/07/27 06:04:09;;;;;;;1.83;1.70;;;19.80;84.90;;;;;;5051362;28;20536;-71
2022/07/27 06:09:19;;;;;;;2.23;2.03;;;19.80;84.40;;;;;;5051035;28;20238;-70
2022/07/27 06:11:45;;;;;;;2.00;1.90;;;19.60;84.70;;;;;;5038358;28;20461;-70
2022/07/27 06:14:10;;;;;;;3.10;2.03;;;19.70;84.80;;;;;;5037490;28;20280;-70
2022/07/27 06:16:36;;;;;;;2.87;2.17;;;19.70;84.90;;;;;;5038807;28;20293;-71
2022/07/27 06:19:02;;;;;;;1.73;1.63;;;19.70;84.70;;;;;;5056087;28;20227;-71
2022/07/27 06:21:27;;;;;;;1.87;1.53;;;19.70;84.80;;;;;;5064250;28;20314;-70
2022/07/27 06:23:53;;;;;;;1.93;1.60;;;19.70;85.00;;;;;;5037961;28;20253;-71
2022/07/27 06:26:20;;;;;;;2.00;1.90;;;19.80;85.20;;;;;;5049779;28;20223;-70
2022/07/27 06:28:46;;;;;;;2.13;1.70;;;19.80;86.00;;;;;;5035399;28;20882;-70
2022/07/27 06:31:12;;;;;;;2.10;1.67;;;19.80;85.00;;;;;;5038503;28;20460;-70
2022/07/27 06:33:38;;;;;;;1.90;1.70;;;19.90;84.70;;;;;;5053685;28;20476;-70
2022/07/27 06:36:04;;;;;;;3.33;2.07;;;20.00;84.70;;;;;;5036590;28;20450;-70
2022/07/27 06:38:30;;;;;;;5.27;1.90;;;20.00;84.90;;;;;;5037129;28;20540;-71
2022/07/27 06:40:57;;;;;;;3.93;1.93;;;20.10;84.90;;;;;;5054226;28;20926;-70
2022/07/27 06:43:29;;;;;;;2.17;1.60;;;20.10;84.50;;;;;;5037621;28;20464;-70
2022/07/27 06:45:57;;;;;;;3.50;1.60;;;20.20;84.80;;;;;;5051631;28;20450;-70
2022/07/27 06:48:23;;;;;;;2.10;1.93;;;20.20;84.80;;;;;;5033776;28;20465;-70
2022/07/27 06:50:50;;;;;;;2.60;2.40;;;20.20;84.70;;;;;;5054881;28;20441;-70
2022/07/27 06:53:16;;;;;;;3.03;2.70;;;20.30;84.30;;;;;;5051675;28;20460;-70
2022/07/27 06:55:42;;;;;;;1.87;1.77;;;20.30;84.00;;;;;;5053015;28;20543;-70
2022/07/27 06:58:07;;;;;;;3.97;1.77;;;20.40;83.30;;;;;;5054376;28;20457;-70
2022/07/27 07:00:33;;;;;;;2.23;1.80;;;20.40;82.60;;;;;;5037346;28;20242;-70
2022/07/27 07:03:04;;;;;;;3.33;1.97;;;20.50;82.50;;;;;;5036650;28;20219;-70
2022/07/27 07:05:31;;;;;;;2.83;1.70;;;20.50;82.50;;;;;;5069014;28;20226;-70
2022/07/27 07:07:57;;;;;;;2.97;1.83;;;20.50;82.30;;;;;;5022270;28;20536;-71
2022/07/27 07:10:24;;;;;;;1.90;1.70;;;20.50;81.70;;;;;;5054276;28;20523;-71
2022/07/27 07:12:56;;;;;;;1.70;1.60;;;20.50;81.50;;;;;;5036227;28;20488;-70
2022/07/27 07:15:25;;;;;;;3.07;2.27;;;20.50;81.30;;;;;;5051221;28;20469;-70
2022/07/27 07:17:52;;;;;;;3.43;2.00;;;20.50;81.50;;;;;;5054682;28;20459;-70
2022/07/27 07:20:18;;;;;;;1.80;1.70;;;20.60;81.30;;;;;;5053651;28;20485;-71
2022/07/27 07:22:43;;;;;;;3.47;2.27;;;20.60;81.20;;;;;;5051485;28;20980;-70
2022/07/27 07:25:09;;;;;;;2.50;2.20;;;20.60;81.10;;;;;;5034030;28;20635;-71
2022/07/27 07:27:35;;;;;;;1.97;1.87;;;20.70;81.30;;;;;;5035363;28;20219;-70
2022/07/27 07:30:01;;;;;;;2.20;2.00;;;20.70;81.30;;;;;;5037792;28;20235;-70
2022/07/27 07:32:27;;;;;;;2.30;2.10;;;20.70;81.00;;;;;;5059278;28;20277;-70
2022/07/27 07:34:54;;;;;;;3.10;1.70;;;20.90;82.10;;;;;;5036509;28;20457;-70
2022/07/27 07:37:19;;;;;;;3.47;1.93;;;20.90;81.00;;;;;;5069883;28;20453;-70
2022/07/27 07:39:46;;;;;;;7.63;2.20;;;21.00;80.90;;;;;;5053606;28;20485;-70
2022/07/27 07:42:12;;;;;;;4.80;1.67;;;21.00;80.30;;;;;;5053173;28;20219;-70
2022/07/27 07:44:38;;;;;;;1.90;1.77;;;21.10;80.70;;;;;;5032583;28;20513;-70
2022/07/27 07:47:04;;;;;;;1.87;1.77;;;21.10;80.70;;;;;;5062552;28;20223;-70
2022/07/27 07:49:30;;;;;;;3.77;2.03;;;21.10;78.70;;;;;;5052796;28;20892;-70
2022/07/27 07:51:57;;;;;;;3.13;2.03;;;21.10;77.40;;;;;;5067250;28;21060;-70
2022/07/27 07:54:22;;;;;;;1.87;1.77;;;21.00;77.40;;;;;;5052135;28;20511;-70
2022/07/27 07:56:48;;;;;;;2.57;1.60;;;21.00;77.70;;;;;;5053122;28;20217;-70
2022/07/27 07:59:14;;;;;;;3.23;2.00;;;21.00;77.40;;;;;;5052701;28;20247;-70
2022/07/27 08:01:39;;;;;;;2.57;2.07;;;21.10;77.30;;;;;;5052722;28;20222;-72
2022/07/27 08:04:05;;;;;;;3.53;1.87;;;21.00;76.60;;;;;;5052685;28;20658;-70
2022/07/27 08:06:31;;;;;;;6.10;1.83;;;21.10;77.00;;;;;;5065387;28;20241;-70
2022/07/27 08:08:57;;;;;;;3.80;1.83;;;21.10;76.20;;;;;;5052934;28;20227;-71
2022/07/27 08:11:23;;;;;;;1.73;1.63;;;21.20;75.90;;;;;;5034821;28;20224;-70
2022/07/27 08:13:49;;;;;;;1.67;1.50;;;21.20;75.90;;;;;;5069805;28;20464;-70
2022/07/27 08:16:15;;;;;;;1.80;1.70;;;21.20;75.60;;;;;;5052051;28;20450;-70
2022/07/27 08:18:41;;;;;;;4.33;1.73;;;21.10;75.00;;;;;;5069382;28;20812;-71
2022/07/27 08:21:08;;;;;;;2.87;1.70;;;21.20;74.20;;;;;;5048957;28;20464;-70
2022/07/27 08:23:34;;;;;;;2.87;2.10;;;21.20;73.80;;;;;;5050930;28;20434;-70
2022/07/27 08:25:59;;;;;;;1.67;1.57;;;21.20;74.20;;;;;;5035122;28;20947;-70
2022/07/27 08:28:26;;;;;;;2.07;1.70;;;21.30;74.70;;;;;;5038737;28;20477;-70
2022/07/27 08:30:51;;;;;;;1.80;1.70;;;21.40;74.90;;;;;;5071406;28;20223;-70
2022/07/27 08:33:17;;;;;;;1.87;1.77;;;21.40;74.00;;;;;;5051734;28;20513;-70
2022/07/27 08:35:44;;;;;;;2.17;1.97;;;21.40;73.40;;;;;;5052525;28;20789;-71
2022/07/27 08:38:11;;;;;;;4.20;1.90;;;21.50;73.90;;;;;;5052676;28;20748;-70
2022/07/27 08:40:37;;;;;;;3.63;1.87;;;21.50;72.60;;;;;;5059533;28;20453;-70
2022/07/27 08:43:04;;;;;;;2.10;1.90;;;21.60;72.50;;;;;;5070196;28;20458;-71
2022/07/27 08:45:30;;;;;;;2.03;1.70;;;21.70;73.00;;;;;;5050998;28;20491;-71
2022/07/27 08:47:56;;;;;;;6.17;1.77;;;21.80;72.40;;;;;;5067869;28;20453;-70
2022/07/27 08:50:22;;;;;;;7.90;2.00;;;21.80;72.20;;;;;;5033016;28;20469;-70
2022/07/27 08:52:50;;;;;;;3.93;2.00;;;21.90;72.20;;;;;;5035704;28;20219;-70
2022/07/27 08:55:16;;;;;;;1.60;1.50;;;22.00;71.90;;;;;;5051471;28;20461;-71
2022/07/27 08:57:41;;;;;;;3.20;2.03;;;22.30;72.30;;;;;;5035601;28;20968;-71
2022/07/27 09:00:08;;;;;;;4.40;2.37;;;22.40;71.50;;;;;;5070391;28;20786;-70
2022/07/27 09:02:34;;;;;;;2.20;2.00;;;22.40;70.50;;;;;;5034918;28;20441;-71
2022/07/27 09:04:59;;;;;;;2.43;2.23;;;22.40;71.00;;;;;;5044573;28;20468;-69
2022/07/27 09:07:27;;;;;;;2.30;1.70;;;22.30;71.40;;;;;;5043237;28;20233;-71
2022/07/27 09:09:53;;;;;;;2.53;2.23;;;22.50;71.50;;;;;;5040485;28;20314;-71
2022/07/27 09:12:27;;;;;;;3.67;1.77;;;22.60;71.50;;;;;;5059646;28;20569;-71
2022/07/27 09:15:06;;;;;;;1.90;1.80;;;22.60;71.60;;;;;;5051553;28;20507;-70
2022/07/27 09:17:33;;;;;;;4.13;2.17;;;22.80;70.60;;;;;;5035015;28;20455;-70
2022/07/27 09:20:03;;;;;;;3.70;2.03;;;22.80;70.80;;;;;;5051901;28;20460;-71
2022/07/27 09:22:51;;;;;;;2.70;2.50;;;22.80;70.20;;;;;;5048981;28;20835;-70
2022/07/27 09:25:25;;;;;;;4.57;2.13;;;22.80;69.50;;;;;;5069225;28;21003;-71
2022/07/27 09:27:56;;;;;;;2.37;2.17;;;22.90;69.90;;;;;;5070670;28;20447;-70
2022/07/27 09:30:22;;;;;;;2.13;2.03;;;23.00;69.60;;;;;;5052965;28;20461;-70
2022/07/27 09:32:59;;;;;;;1.90;1.80;;;23.00;69.60;;;;;;5034571;28;20445;-70
2022/07/27 09:35:34;;;;;;;2.03;1.90;;;23.00;69.00;;;;;;5051146;28;20496;-70
2022/07/27 09:38:23;;;;;;;2.50;2.30;;;23.00;69.20;;;;;;5050327;28;20483;-71
2022/07/27 09:41:06;;;;;;;5.60;2.27;;;22.90;68.50;;;;;;5074551;28;20833;-71
2022/07/27 09:43:51;;;;;;;2.40;2.20;;;23.00;68.80;;;;;;5072333;28;20466;-70
2022/07/27 09:46:38;;;;;;;2.13;1.90;;;23.10;68.80;;;;;;5039772;28;20536;-70
2022/07/27 09:49:05;;;;;;;2.63;1.80;;;23.20;67.90;;;;;;5047060;28;20471;-70
2022/07/27 09:51:31;;;;;;;2.37;2.17;;;23.10;67.80;;;;;;5067749;28;21049;-70
2022/07/27 09:54:04;;;;;;;3.23;2.00;;;23.20;68.10;;;;;;5032826;28;20500;-70
2022/07/27 09:56:31;;;;;;;2.23;2.03;;;23.10;68.30;;;;;;5057493;28;20501;-70
2022/07/27 09:58:59;;;;;;;3.27;2.47;;;23.10;67.90;;;;;;5061058;28;20502;-71
2022/07/27 10:01:36;;;;;;;4.73;1.87;;;23.00;67.40;;;;;;5033418;28;20437;-70
2022/07/27 10:04:08;;;;;;;1.90;1.80;;;23.00;67.10;;;;;;5068575;28;21248;-70
2022/07/27 10:06:34;;;;;;;2.67;2.10;;;23.00;68.00;;;;;;5065980;28;20464;-70
2022/07/27 10:09:00;;;;;;;3.20;2.20;;;23.00;67.30;;;;;;5038335;28;20827;-71
2022/07/27 10:11:27;;;;;;;2.80;2.13;;;23.20;68.30;;;;;;5040204;28;20463;-71
2022/07/27 10:13:55;;;;;;;3.53;3.20;;;23.30;66.60;;;;;;5068034;28;20464;-71
2022/07/27 10:16:30;;;;;;;2.60;2.00;;;23.30;66.90;;;;;;5050240;28;20468;-70
2022/07/27 10:19:13;;;;;;;1.90;1.80;;;23.40;66.40;;;;;;5033996;28;20457;-70
2022/07/27 10:21:42;;;;;;;3.53;1.90;;;23.50;66.80;;;;;;5056042;28;20453;-71
2022/07/27 10:24:12;;;;;;;3.60;2.50;;;23.70;66.60;;;;;;5047080;28;20457;-71
2022/07/27 10:26:42;;;;;;;2.30;2.10;;;23.60;65.20;;;;;;5061724;28;20441;-70
2022/07/27 10:29:15;;;;;;;2.53;2.33;;;23.60;65.00;;;;;;5053771;28;21041;-70
2022/07/27 10:31:55;;;;;;;2.57;2.10;;;23.40;65.20;;;;;;5046233;28;20532;-70
2022/07/27 10:34:36;;;;;;;1.80;1.70;;;23.30;65.50;;;;;;5031713;28;20842;-70
2022/07/27 10:37:08;;;;;;;1.90;1.80;;;23.40;65.80;;;;;;5045837;28;20866;-71
2022/07/27 10:39:37;;;;;;;2.30;2.07;;;23.50;66.00;;;;;;5028386;28;20506;-71
2022/07/27 10:42:21;;;;;;;2.00;1.90;;;23.50;65.00;;;;;;5027883;28;20543;-72
2022/07/27 10:45:17;;;;;;;3.50;2.20;;;23.60;65.30;;;;;;5041687;28;20807;-70
2022/07/27 10:47:45;;;;;;;2.37;2.17;;;23.70;65.20;;;;;;5028786;28;20456;-70
2022/07/27 10:50:14;;;;;;;3.10;2.53;;;23.90;64.40;;;;;;5041140;28;20513;-69
2022/07/27 10:52:47;;;;;;;4.47;3.97;;;24.00;64.20;;;;;;5028617;28;20803;-71
2022/07/27 10:55:32;;;;;;;2.57;2.20;;;24.10;63.80;;;;;;5057725;28;20466;-71
2022/07/27 10:58:13;;;;;;;2.80;2.60;;;24.30;64.60;;;;;;5079306;28;20492;-71
2022/07/27 11:00:48;;;;;;;1.70;1.60;;;24.40;63.60;;;;;;5053704;28;20456;-70
2022/07/27 11:03:22;;;;;;;1.77;1.67;;;24.20;61.90;;;;;;5044347;28;20485;-71
2022/07/27 11:05:55;;;;;;;3.37;2.07;;;24.10;62.40;;;;;;5051071;28;20867;-71
2022/07/27 11:08:31;;;;;;;4.43;2.00;;;24.10;62.20;;;;;;5051511;28;20461;-70
2022/07/27 11:10:58;;;;;;;2.60;1.90;;;24.00;61.60;;;;;;5030257;28;20495;-70
2022/07/27 11:13:25;;;;;;;2.47;1.90;;;24.00;62.20;;;;;;5034649;28;20457;-72
2022/07/27 11:16:09;;;;;;;2.00;1.87;;;24.00;61.70;;;;;;5052670;28;20472;-70
2022/07/27 11:18:39;;;;;;;2.07;1.90;;;24.00;62.10;;;;;;5036518;28;20452;-71
2022/07/27 11:21:37;;;;;;;2.30;2.00;;;24.20;62.30;;;;;;5070766;28;20469;-70
2022/07/27 11:24:11;;;;;;;3.57;2.00;;;24.20;61.60;;;;;;5045743;28;20449;-70
2022/07/27 11:26:39;;;;;;;3.47;2.30;;;24.40;62.10;;;;;;5044302;28;20460;-71
2022/07/27 11:29:10;;;;;;;3.50;2.50;;;24.50;60.60;;;;;;5054961;28;20460;-70
2022/07/27 11:31:38;;;;;;;3.03;2.27;;;24.50;60.30;;;;;;5070087;28;20448;-71
2022/07/27 11:34:04;;;;;;;3.60;2.30;;;24.70;61.40;;;;;;5049440;28;20829;-71
2022/07/27 11:36:50;;;;;;;4.40;2.10;;;24.80;60.50;;;;;;5084432;28;20440;-71
2022/07/27 11:39:23;;;;;;;4.03;2.23;;;24.70;59.80;;;;;;5052660;28;20648;-71
2022/07/27 11:41:52;;;;;;;1.70;1.60;;;24.40;59.50;;;;;;5070603;28;20464;-70
2022/07/27 11:44:17;;;;;;;5.27;2.47;;;24.40;59.60;;;;;;5033564;28;20466;-71
2022/07/27 11:46:45;;;;;;;1.90;1.70;;;24.30;59.60;;;;;;5051843;28;20851;-70
2022/07/27 11:49:13;;;;;;;2.70;1.83;;;24.30;59.80;;;;;;5051892;28;20246;-70
2022/07/27 11:51:43;;;;;;;2.90;2.10;;;24.30;59.80;;;;;;5069937;28;20479;-70
2022/07/27 11:54:30;;;;;;;1.73;1.63;;;24.40;59.70;;;;;;5040997;28;20897;-70
2022/07/27 11:56:56;;;;;;;2.90;1.90;;;24.50;59.50;;;;;;5064463;28;20479;-70
2022/07/27 11:59:33;;;;;;;1.87;1.77;;;24.40;59.70;;;;;;5047965;28;20460;-71
2022/07/27 12:02:14;;;;;;;3.30;2.00;;;24.40;59.30;;;;;;5047544;28;20225;-70
2022/07/27 12:04:42;;;;;;;1.93;1.83;;;24.50;59.20;;;;;;5050927;28;20976;-71
2022/07/27 12:07:32;;;;;;;2.60;1.77;;;24.50;59.10;;;;;;5058803;28;20508;-71
2022/07/27 12:10:00;;;;;;;2.60;1.80;;;24.50;59.10;;;;;;5029351;28;20816;-70
2022/07/27 12:12:30;;;;;;;2.40;1.87;;;24.60;59.10;;;;;;5066894;28;20456;-70
2022/07/27 12:15:12;;;;;;;3.93;2.00;;;24.70;59.00;;;;;;5051845;28;20469;-70
2022/07/27 12:17:39;;;;;;;2.37;2.17;;;24.80;59.10;;;;;;5052249;28;20852;-70
2022/07/27 12:20:15;;;;;;;1.83;1.63;;;24.90;58.90;;;;;;5052291;28;20464;-70
2022/07/27 12:22:49;;;;;;;3.53;1.93;;;25.00;58.80;;;;;;5049577;28;20460;-71
2022/07/27 12:25:18;;;;;;;1.87;1.70;;;25.10;58.80;;;;;;5048096;28;20995;-71
2022/07/27 12:27:57;;;;;;;1.63;1.53;;;25.10;58.40;;;;;;5042844;28;20448;-70
2022/07/27 12:30:41;;;;;;;2.13;1.70;;;25.20;58.40;;;;;;5053232;28;20536;-70
2022/07/27 12:33:23;;;;;;;2.30;2.10;;;25.10;58.40;;;;;;5048606;28;20487;-70
2022/07/27 12:35:49;;;;;;;3.13;1.80;;;25.10;58.10;;;;;;5046126;28;20472;-71
2022/07/27 12:38:15;;;;;;;2.10;1.90;;;25.00;58.20;;;;;;5034052;28;20457;-70
2022/07/27 12:40:49;;;;;;;1.67;1.57;;;25.00;58.40;;;;;;5048479;28;20218;-70
2022/07/27 12:43:17;;;;;;;1.60;1.50;;;25.00;58.50;;;;;;5043931;28;20452;-70
2022/07/27 12:45:44;;;;;;;2.30;1.90;;;25.20;58.10;;;;;;5050548;28;20457;-70
2022/07/27 12:48:21;;;;;;;3.67;1.53;;;25.10;58.00;;;;;;5060536;28;20461;-71
2022/07/27 12:51:05;;;;;;;3.03;2.30;;;25.10;58.00;;;;;;5034200;28;20873;-70
2022/07/27 12:53:32;;;;;;;4.63;1.80;;;25.20;57.90;;;;;;5046724;28;20811;-70
2022/07/27 12:56:02;;;;;;;2.70;1.60;;;25.30;57.80;;;;;;5039977;28;20457;-71
2022/07/27 12:58:28;;;;;;;2.50;2.30;;;25.30;57.60;;;;;;5065614;28;20480;-70